createdAt,value
2018-07-21T00:00:17.149Z,93418.05
2018-07-21T00:02:45.222Z,93419.13
2018-07-21T00:05:13.252Z,93419.97
2018-07-21T00:07:41.493Z,93420.23
2018-07-21T00:10:09.630Z,93428.43
2018-07-21T00:12:37.745Z,93426.31
2018-07-21T00:15:05.936Z,93429.41
2018-07-21T00:17:33.992Z,93430.72
2018-07-21T00:20:02.126Z,93428.71
2018-07-21T00:22:30.204Z,93430.48
2018-07-21T00:24:58.381Z,93432.39
2018-07-21T00:27:26.607Z,93436.20
2018-07-21T00:29:54.772Z,93433.95
2018-07-21T00:32:22.824Z,93437.14
2018-07-21T00:34:50.810Z,93432.39
2018-07-21T00:37:18.868Z,93433.70
2018-07-21T00:39:46.929Z,93432.88
2018-07-21T00:42:15.093Z,93434.19
2018-07-21T00:44:43.296Z,93431.47
2018-07-21T00:47:11.442Z,93434.78
2018-07-21T00:49:39.505Z,93433.11
2018-07-21T00:52:07.600Z,93432.77
2018-07-21T00:54:35.692Z,93430.64
2018-07-21T00:57:03.723Z,93425.75
2018-07-21T00:59:31.877Z,93430.97
2018-07-21T01:01:59.953Z,93432.99
2018-07-21T01:04:27.994Z,93435.38
2018-07-21T01:06:56.088Z,93432.06
2018-07-21T01:09:24.115Z,93428.96
2018-07-21T01:11:52.185Z,93433.48
2018-07-21T01:14:20.352Z,93433.70
2018-07-21T01:16:48.424Z,93432.17
2018-07-21T01:19:16.445Z,93434.78
2018-07-21T01:21:44.524Z,93439.89
2018-07-21T01:24:13.559Z,93439.52
2018-07-21T01:26:41.624Z,93437.02
2018-07-21T01:29:09.662Z,93436.45
2018-07-21T01:31:37.709Z,93440.22
2018-07-21T01:34:05.795Z,93442.00
2018-07-21T01:36:33.798Z,93443.20
2018-07-21T01:39:01.807Z,93435.59
2018-07-21T01:41:29.952Z,93434.53
2018-07-21T01:43:58.059Z,93439.88
2018-07-21T01:46:26.139Z,93434.28
2018-07-21T01:48:54.304Z,93432.52
2018-07-21T01:51:22.386Z,93437.26
2018-07-21T01:53:50.446Z,93435.12
2018-07-21T01:56:18.549Z,93441.06
2018-07-21T01:58:46.658Z,93441.36
2018-07-21T02:01:14.707Z,93442.91
2018-07-21T02:03:45.911Z,93441.22
2018-07-21T02:06:14.073Z,93448.23
2018-07-21T02:08:42.277Z,93440.74
2018-07-21T02:11:10.520Z,93447.14
2018-07-21T02:13:38.708Z,93445.13
2018-07-21T02:16:06.747Z,93446.91
2018-07-21T02:18:34.852Z,93444.63
2018-07-21T02:21:03.159Z,93438.11
2018-07-21T02:23:31.242Z,93439.53
2018-07-21T02:25:59.403Z,93441.89
2018-07-21T02:28:27.477Z,93440.00
2018-07-21T02:30:55.523Z,93433.60
2018-07-21T02:33:23.809Z,93443.52
2018-07-21T02:35:52.132Z,93443.39
2018-07-21T02:38:20.196Z,93445.90
2018-07-21T02:40:48.213Z,93452.16
2018-07-21T02:43:16.264Z,93444.91
2018-07-21T02:45:44.256Z,93446.22
2018-07-21T02:48:12.311Z,93446.15
2018-07-21T02:50:40.330Z,93446.72
2018-07-21T02:53:08.342Z,93446.94
2018-07-21T02:55:36.463Z,93443.61
2018-07-21T02:58:04.480Z,93445.15
2018-07-21T03:00:32.582Z,93451.81
2018-07-21T03:03:00.702Z,93451.44
2018-07-21T03:05:28.974Z,93448.37
2018-07-21T03:07:57.166Z,93456.06
2018-07-21T03:10:25.321Z,93454.27
2018-07-21T03:12:53.519Z,93459.22
2018-07-21T03:15:21.568Z,93451.69
2018-07-21T03:17:49.650Z,93456.61
2018-07-21T03:20:17.731Z,93458.61
2018-07-21T03:22:45.747Z,93461.45
2018-07-21T03:25:13.854Z,93461.56
2018-07-21T03:27:41.937Z,93466.20
2018-07-21T03:30:10.068Z,93457.62
2018-07-21T03:32:38.129Z,93463.51
2018-07-21T03:35:06.207Z,93462.48
2018-07-21T03:37:34.283Z,93460.50
2018-07-21T03:40:02.529Z,93462.42
2018-07-21T03:42:30.553Z,93464.08
2018-07-21T03:44:58.558Z,93460.53
2018-07-21T03:47:26.596Z,93456.97
2018-07-21T03:49:54.651Z,93463.80
2018-07-21T03:52:22.748Z,93470.47
2018-07-21T03:54:50.784Z,93471.05
2018-07-21T03:57:18.821Z,93467.78
2018-07-21T03:59:46.900Z,93471.86
2018-07-21T04:02:15.168Z,93475.52
2018-07-21T04:04:43.358Z,93471.86
2018-07-21T04:07:11.756Z,93476.98
2018-07-21T04:09:39.861Z,93481.00
2018-07-21T04:12:07.967Z,93477.47
2018-07-21T04:14:36.060Z,93477.97
2018-07-21T04:17:04.352Z,93480.27
2018-07-21T04:19:32.520Z,93484.44
2018-07-21T04:22:00.869Z,93485.95
2018-07-21T04:24:29.326Z,93492.50
2018-07-21T04:26:57.504Z,93492.66
2018-07-21T04:29:25.562Z,93481.23
2018-07-21T04:31:53.817Z,93483.66
2018-07-21T04:34:22.045Z,93478.90
2018-07-21T04:36:50.438Z,93485.63
2018-07-21T04:39:19.157Z,93482.08
2018-07-21T04:41:47.997Z,93489.80
2018-07-21T04:44:16.322Z,93483.20
2018-07-21T04:46:44.736Z,93487.06
2018-07-21T04:49:13.503Z,93484.14
2018-07-21T04:51:42.087Z,93488.59
2018-07-21T04:54:10.629Z,93488.54
2018-07-21T04:56:39.028Z,93496.62
2018-07-21T04:59:07.543Z,93492.95
2018-07-21T05:01:36.010Z,93495.59
2018-07-21T05:04:04.636Z,93503.11
2018-07-21T05:06:33.028Z,93506.72
2018-07-21T05:09:01.577Z,93503.66
2018-07-21T05:11:30.190Z,93503.78
2018-07-21T05:13:58.627Z,93507.20
2018-07-21T05:16:27.490Z,93504.91
2018-07-21T05:18:56.027Z,93506.08
2018-07-21T05:21:24.452Z,93505.89
2018-07-21T05:23:52.925Z,93509.53
2018-07-21T05:26:21.290Z,93512.38
2018-07-21T05:28:49.666Z,93506.94
2018-07-21T05:31:18.287Z,93520.41
2018-07-21T05:33:46.747Z,93517.58
2018-07-21T05:36:15.104Z,93522.91
2018-07-21T05:38:43.529Z,93517.69
2018-07-21T05:41:12.073Z,93517.66
2018-07-21T05:43:40.801Z,93506.79
2018-07-21T05:46:09.424Z,93511.08
2018-07-21T05:51:05.481Z,93512.42
2018-07-21T05:53:33.966Z,93505.61
2018-07-21T05:56:02.166Z,93502.62
2018-07-21T05:58:30.220Z,93508.42
2018-07-21T06:00:58.270Z,93502.13
2018-07-21T06:03:26.676Z,93516.02
2018-07-21T06:05:55.037Z,93513.01
2018-07-21T06:08:23.416Z,93508.65
2018-07-21T06:10:51.847Z,93511.95
2018-07-21T06:13:20.346Z,93512.80
2018-07-21T06:15:48.920Z,93507.81
2018-07-21T06:18:17.401Z,93505.73
2018-07-21T06:20:45.860Z,93503.12
2018-07-21T06:23:14.084Z,93502.94
2018-07-21T06:25:42.291Z,93510.81
2018-07-21T06:28:10.434Z,93509.64
2018-07-21T06:30:38.530Z,93508.32
2018-07-21T06:33:06.798Z,93511.95
2018-07-21T06:35:35.037Z,93513.78
2018-07-21T06:38:03.052Z,93506.63
2018-07-21T06:40:31.188Z,93509.45
2018-07-21T06:42:59.352Z,93506.96
2018-07-21T06:45:27.443Z,93507.05
2018-07-21T06:47:55.719Z,93505.94
2018-07-21T06:50:23.970Z,93508.77
2018-07-21T06:52:52.013Z,93508.42
2018-07-21T06:55:20.221Z,93500.94
2018-07-21T06:57:48.539Z,93503.24
2018-07-21T07:00:16.924Z,93501.41
2018-07-21T07:02:45.366Z,93500.97
2018-07-21T07:05:13.983Z,93489.95
2018-07-21T07:07:42.345Z,93489.99
2018-07-21T07:10:10.900Z,93494.42
2018-07-21T07:12:39.387Z,93490.68
2018-07-21T07:15:07.884Z,93495.50
2018-07-21T07:17:36.451Z,93492.28
2018-07-21T07:20:05.485Z,93490.42
2018-07-21T07:22:34.304Z,93489.91
2018-07-21T07:25:02.965Z,93484.62
2018-07-21T07:27:31.822Z,93483.48
2018-07-21T07:30:00.659Z,93487.92
2018-07-21T07:32:32.610Z,93484.89
2018-07-21T07:35:01.206Z,93480.30
2018-07-21T07:37:30.524Z,93481.70
2018-07-21T07:39:58.976Z,93476.30
2018-07-21T07:42:27.527Z,93478.57
2018-07-21T07:44:56.233Z,93476.92
2018-07-21T07:47:24.941Z,93481.95
2018-07-21T07:49:53.551Z,93486.07
2018-07-21T07:52:22.103Z,93478.88
2018-07-21T07:54:50.822Z,93477.55
2018-07-21T07:57:19.131Z,93484.08
2018-07-21T07:59:47.323Z,93491.05
2018-07-21T08:02:15.640Z,93490.83
2018-07-21T08:04:44.366Z,93494.83
2018-07-21T08:07:12.989Z,93497.25
2018-07-21T08:09:41.391Z,93492.30
2018-07-21T08:12:09.924Z,93491.48
2018-07-21T08:14:38.530Z,93503.16
2018-07-21T08:17:06.986Z,93499.66
2018-07-21T08:19:35.375Z,93502.55
2018-07-21T08:22:03.983Z,93503.47
2018-07-21T08:24:32.443Z,93498.00
2018-07-21T08:27:00.647Z,93505.92
2018-07-21T08:29:28.956Z,93502.20
2018-07-21T08:31:57.226Z,93505.22
2018-07-21T08:34:25.492Z,93508.36
2018-07-21T08:36:54.276Z,93501.38
2018-07-21T08:39:24.857Z,93509.48
2018-07-21T08:41:53.349Z,93499.09
2018-07-21T08:44:21.689Z,93501.44
2018-07-21T08:46:50.179Z,93505.28
2018-07-21T08:49:18.660Z,93507.98
2018-07-21T08:51:46.997Z,93503.73
2018-07-21T08:54:15.354Z,93503.23
2018-07-21T08:56:43.836Z,93503.61
2018-07-21T08:59:12.072Z,93505.36
2018-07-21T09:01:40.267Z,93505.31
2018-07-21T09:04:08.763Z,93507.68
2018-07-21T09:06:37.186Z,93501.20
2018-07-21T09:09:09.359Z,93498.72
2018-07-21T09:11:37.621Z,93496.66
2018-07-21T09:14:05.789Z,93500.46
2018-07-21T09:16:34.154Z,93507.17
2018-07-21T09:19:02.634Z,93501.72
2018-07-21T09:21:30.952Z,93492.88
2018-07-21T09:23:59.152Z,93497.20
2018-07-21T09:26:27.361Z,93493.59
2018-07-21T09:28:55.830Z,93484.66
2018-07-21T09:31:24.093Z,93492.98
2018-07-21T09:33:52.701Z,93489.22
2018-07-21T09:36:21.479Z,93493.58
2018-07-21T09:38:50.807Z,93493.30
2018-07-21T09:41:19.424Z,93493.36
2018-07-21T09:43:47.809Z,93491.97
2018-07-21T09:46:15.978Z,93487.13
2018-07-21T09:48:46.308Z,93481.76
2018-07-21T09:51:14.652Z,93482.67
2018-07-21T09:53:43.000Z,93484.07
2018-07-21T09:56:11.502Z,93477.64
2018-07-21T09:58:39.879Z,93484.03
2018-07-21T10:01:08.184Z,93482.69
2018-07-21T10:03:36.533Z,93473.77
2018-07-21T10:06:04.794Z,93472.72
2018-07-21T10:08:34.170Z,93471.07
2018-07-21T10:11:02.506Z,93470.64
2018-07-21T10:13:30.631Z,93462.20
2018-07-21T10:15:59.037Z,93466.48
2018-07-21T10:18:27.393Z,93467.91
2018-07-21T10:20:55.573Z,93461.84
2018-07-21T10:23:23.880Z,93459.94
2018-07-21T10:25:57.548Z,93452.64
2018-07-21T10:28:31.806Z,93451.59
2018-07-21T10:30:59.935Z,93455.66
2018-07-21T10:33:28.210Z,93451.19
2018-07-21T10:35:56.646Z,93453.58
2018-07-21T10:38:25.132Z,93443.45
2018-07-21T10:40:53.958Z,93448.95
2018-07-21T10:43:22.424Z,93450.81
2018-07-21T10:45:50.719Z,93457.42
2018-07-21T10:48:21.022Z,93451.32
2018-07-21T10:50:49.474Z,93451.75
2018-07-21T10:53:18.078Z,93445.44
2018-07-21T10:55:47.914Z,93448.98
2018-07-21T10:58:16.525Z,93450.06
2018-07-21T11:00:45.056Z,93447.26
2018-07-21T11:03:13.694Z,93441.24
2018-07-21T11:05:42.775Z,93443.16
2018-07-21T11:08:11.363Z,93442.77
2018-07-21T11:10:40.260Z,93437.98
2018-07-21T11:13:08.768Z,93433.47
2018-07-21T11:15:37.380Z,93441.34
2018-07-21T11:18:06.977Z,93434.98
2018-07-21T11:20:35.748Z,93439.92
2018-07-21T11:23:04.518Z,93433.45
2018-07-21T11:25:32.957Z,93440.29
2018-07-21T11:28:01.450Z,93432.86
2018-07-21T11:30:29.849Z,93433.47
2018-07-21T11:32:58.499Z,93427.00
2018-07-21T11:35:27.100Z,93428.22
2018-07-21T11:37:56.061Z,93428.36
2018-07-21T11:40:24.884Z,93426.91
2018-07-21T11:42:53.744Z,93428.78
2018-07-21T11:45:22.261Z,93417.81
2018-07-21T11:47:50.853Z,93424.27
2018-07-21T11:50:19.243Z,93424.83
2018-07-21T11:52:47.754Z,93418.73
2018-07-21T11:55:16.436Z,93419.05
2018-07-21T11:57:45.031Z,93417.78
2018-07-21T12:00:13.581Z,93419.91
2018-07-21T12:02:42.039Z,93422.47
2018-07-21T12:05:10.809Z,93410.76
2018-07-21T12:07:40.095Z,93406.66
2018-07-21T12:10:08.589Z,93398.59
2018-07-21T12:12:36.851Z,93404.25
2018-07-21T12:15:05.482Z,93395.16
2018-07-21T12:17:33.870Z,93400.09
2018-07-21T12:20:02.187Z,93396.41
2018-07-21T12:22:30.620Z,93403.66
2018-07-21T12:24:58.993Z,93399.25
2018-07-21T12:27:28.040Z,93393.98
2018-07-21T12:29:57.043Z,93398.56
2018-07-21T12:32:26.401Z,93393.80
2018-07-21T12:34:59.908Z,93398.55
2018-07-21T12:37:30.932Z,93395.63
2018-07-21T12:39:59.795Z,93396.12
2018-07-21T12:42:28.526Z,93389.08
2018-07-21T12:44:57.145Z,93388.30
2018-07-21T12:47:25.914Z,93386.15
2018-07-21T12:49:54.461Z,93389.64
2018-07-21T12:52:23.035Z,93382.52
2018-07-21T12:54:51.394Z,93388.44
2018-07-21T12:57:19.974Z,93384.66
2018-07-21T12:59:48.868Z,93379.80
2018-07-21T13:02:17.424Z,93378.99
2018-07-21T13:04:45.877Z,93372.90
2018-07-21T13:07:14.702Z,93372.30
2018-07-21T13:09:43.799Z,93374.21
2018-07-21T13:12:12.791Z,93378.00
2018-07-21T13:14:41.711Z,93373.91
2018-07-21T13:17:11.236Z,93368.59
2018-07-21T13:19:40.727Z,93371.19
2018-07-21T13:22:09.945Z,93365.65
2018-07-21T13:24:38.560Z,93369.67
2018-07-21T13:27:07.632Z,93371.01
2018-07-21T13:29:36.467Z,93362.73
2018-07-21T13:32:04.952Z,93356.48
2018-07-21T13:34:33.527Z,93351.97
2018-07-21T13:37:02.477Z,93351.33
2018-07-21T13:39:31.206Z,93355.81
2018-07-21T13:41:59.821Z,93351.77
2018-07-21T13:44:28.462Z,93348.96
2018-07-21T13:46:57.229Z,93346.69
2018-07-21T13:49:26.020Z,93352.24
2018-07-21T13:51:54.780Z,93351.11
2018-07-21T13:54:23.190Z,93351.80
2018-07-21T13:56:52.138Z,93353.27
2018-07-21T13:59:21.036Z,93348.44
2018-07-21T14:01:50.278Z,93349.30
2018-07-21T14:04:19.128Z,93351.12
2018-07-21T14:06:47.612Z,93346.08
2018-07-21T14:09:16.195Z,93350.59
2018-07-21T14:11:44.631Z,93357.02
2018-07-21T14:14:13.624Z,93361.11
2018-07-21T14:16:42.163Z,93357.95
2018-07-21T14:19:10.744Z,93360.77
2018-07-21T14:21:39.159Z,93364.39
2018-07-21T14:24:07.849Z,93365.51
2018-07-21T14:26:36.388Z,93364.33
2018-07-21T14:29:05.231Z,93363.50
2018-07-21T14:31:33.675Z,93357.08
2018-07-21T14:34:02.588Z,93355.82
2018-07-21T14:36:31.721Z,93357.56
2018-07-21T14:39:00.108Z,93360.16
2018-07-21T14:41:28.573Z,93355.95
2018-07-21T14:43:57.146Z,93342.33
2018-07-21T14:46:25.656Z,93339.86
2018-07-21T14:48:54.183Z,93347.20
2018-07-21T14:51:22.807Z,93345.46
2018-07-21T14:53:51.280Z,93344.70
2018-07-21T14:56:19.613Z,93346.52
2018-07-21T14:58:48.153Z,93348.86
2018-07-21T15:01:16.844Z,93346.83
2018-07-21T15:03:45.417Z,93344.23
2018-07-21T15:06:14.371Z,93347.64
2018-07-21T15:08:43.012Z,93349.48
2018-07-21T15:11:11.640Z,93347.13
2018-07-21T15:13:40.482Z,93348.77
2018-07-21T15:16:08.971Z,93342.19
2018-07-21T15:18:37.410Z,93345.89
2018-07-21T15:21:06.059Z,93343.12
2018-07-21T15:23:34.505Z,93343.95
2018-07-21T15:26:03.063Z,93340.45
2018-07-21T15:28:31.874Z,93344.16
2018-07-21T15:31:00.409Z,93339.64
2018-07-21T15:33:29.078Z,93344.77
2018-07-21T15:35:57.792Z,93336.66
2018-07-21T15:38:26.309Z,93334.20
2018-07-21T15:40:54.792Z,93334.19
2018-07-21T15:43:23.354Z,93335.80
2018-07-21T15:45:52.270Z,93333.83
2018-07-21T15:48:21.086Z,93339.81
2018-07-21T15:50:49.535Z,93338.04
2018-07-21T15:53:18.072Z,93335.86
2018-07-21T15:55:46.572Z,93335.84
2018-07-21T15:58:15.143Z,93337.27
2018-07-21T16:00:43.572Z,93344.19
2018-07-21T16:03:12.204Z,93343.44
2018-07-21T16:05:40.757Z,93344.73
2018-07-21T16:08:09.319Z,93343.96
2018-07-21T16:10:37.850Z,93340.72
2018-07-21T16:13:06.964Z,93345.27
2018-07-21T16:15:35.546Z,93345.82
2018-07-21T16:18:04.251Z,93348.13
2018-07-21T16:20:33.141Z,93344.92
2018-07-21T16:23:01.903Z,93345.98
2018-07-21T16:25:31.526Z,93351.11
2018-07-21T16:28:00.696Z,93350.31
2018-07-21T16:30:29.331Z,93347.84
2018-07-21T16:32:57.586Z,93349.11
2018-07-21T16:35:25.771Z,93352.25
2018-07-21T16:37:54.562Z,93354.56
2018-07-21T16:40:23.156Z,93357.22
2018-07-21T16:42:51.487Z,93366.98
2018-07-21T16:45:19.788Z,93365.59
2018-07-21T16:47:48.106Z,93363.58
2018-07-21T16:50:16.553Z,93364.45
2018-07-21T16:52:45.399Z,93361.91
2018-07-21T16:55:15.530Z,93363.02
2018-07-21T16:57:44.172Z,93359.08
2018-07-21T17:00:12.762Z,93359.72
2018-07-21T17:02:41.177Z,93360.02
2018-07-21T17:05:09.783Z,93358.59
2018-07-21T17:07:38.488Z,93359.37
2018-07-21T17:10:07.080Z,93362.05
2018-07-21T17:12:35.640Z,93362.30
2018-07-21T17:15:04.533Z,93366.72
2018-07-21T17:17:33.040Z,93366.81
2018-07-21T17:20:01.442Z,93368.64
2018-07-21T17:22:33.545Z,93365.69
2018-07-21T17:25:03.768Z,93368.89
2018-07-21T17:27:33.628Z,93370.28
2018-07-21T17:30:02.130Z,93370.33
2018-07-21T17:32:30.582Z,93369.52
2018-07-21T17:34:58.943Z,93366.70
2018-07-21T17:37:27.278Z,93375.16
2018-07-21T17:39:55.684Z,93373.01
2018-07-21T17:42:24.089Z,93383.92
2018-07-21T17:44:52.499Z,93384.41
2018-07-21T17:47:20.984Z,93383.58
2018-07-21T17:49:49.306Z,93380.09
2018-07-21T17:52:17.719Z,93383.74
2018-07-21T17:54:47.884Z,93380.41
2018-07-21T17:57:16.172Z,93385.80
2018-07-21T17:59:44.451Z,93387.22
2018-07-21T18:02:13.541Z,93377.80
2018-07-21T18:04:41.918Z,93380.08
2018-07-21T18:07:10.367Z,93377.59
2018-07-21T18:09:39.080Z,93375.72
2018-07-21T18:12:07.441Z,93371.69
2018-07-21T18:14:36.208Z,93372.32
2018-07-21T18:17:05.057Z,93377.85
2018-07-21T18:19:33.481Z,93372.84
2018-07-21T18:22:02.023Z,93378.48
2018-07-21T18:24:30.666Z,93369.52
2018-07-21T18:26:59.148Z,93369.10
2018-07-21T18:29:27.569Z,93378.83
2018-07-21T18:31:55.962Z,93372.66
2018-07-21T18:34:24.294Z,93374.05
2018-07-21T18:36:52.569Z,93381.88
2018-07-21T18:39:20.989Z,93373.17
2018-07-21T18:41:49.263Z,93383.17
2018-07-21T18:44:17.687Z,93384.19
2018-07-21T18:46:47.011Z,93390.84
2018-07-21T18:49:15.390Z,93391.83
2018-07-21T18:51:43.808Z,93400.38
2018-07-21T18:54:12.252Z,93402.98
2018-07-21T18:56:40.649Z,93401.11
2018-07-21T18:59:09.217Z,93398.80
2018-07-21T19:01:38.340Z,93405.95
2018-07-21T19:04:06.875Z,93404.61
2018-07-21T19:06:35.468Z,93410.91
2018-07-21T19:09:06.057Z,93416.64
2018-07-21T19:11:34.386Z,93408.66
2018-07-21T19:14:02.782Z,93411.44
2018-07-21T19:16:36.753Z,93399.55
2018-07-21T19:19:05.038Z,93407.23
2018-07-21T19:21:33.589Z,93407.02
2018-07-21T19:24:02.217Z,93405.30
2018-07-21T19:26:36.184Z,93403.05
2018-07-21T19:29:04.779Z,93407.36
2018-07-21T19:31:33.259Z,93398.78
2018-07-21T19:34:01.773Z,93412.72
2018-07-21T19:36:30.322Z,93411.95
2018-07-21T19:38:58.807Z,93412.41
2018-07-21T19:41:32.902Z,93407.02
2018-07-21T19:44:01.260Z,93412.27
2018-07-21T19:46:29.809Z,93408.69
2018-07-21T19:48:58.366Z,93415.09
2018-07-21T19:51:26.803Z,93412.86
2018-07-21T19:53:55.141Z,93413.19
2018-07-21T19:56:23.651Z,93406.33
2018-07-21T19:58:52.171Z,93403.98
2018-07-21T20:01:20.695Z,93406.28
2018-07-21T20:03:49.051Z,93403.47
2018-07-21T20:06:17.329Z,93407.20
2018-07-21T20:08:45.707Z,93408.34
2018-07-21T20:11:13.988Z,93404.34
2018-07-21T20:13:42.376Z,93407.58
2018-07-21T20:16:11.218Z,93410.75
2018-07-21T20:18:39.832Z,93406.44
2018-07-21T20:21:08.267Z,93405.67
2018-07-21T20:23:37.022Z,93411.23
2018-07-21T20:26:05.432Z,93407.78
2018-07-21T20:28:34.098Z,93411.10
2018-07-21T20:31:02.538Z,93405.55
2018-07-21T20:33:31.110Z,93405.88
2018-07-21T20:35:59.480Z,93404.42
2018-07-21T20:38:27.974Z,93403.38
2018-07-21T20:40:56.540Z,93393.88
2018-07-21T20:43:24.979Z,93393.61
2018-07-21T20:45:53.369Z,93383.23
2018-07-21T20:48:21.912Z,93385.04
2018-07-21T20:50:50.286Z,93392.34
2018-07-21T20:53:18.625Z,93389.45
2018-07-21T20:55:47.230Z,93387.44
2018-07-21T20:58:15.460Z,93384.63
2018-07-21T21:00:43.838Z,93385.09
2018-07-21T21:03:12.487Z,93381.04
2018-07-21T21:05:40.807Z,93375.81
2018-07-21T21:08:09.117Z,93384.44
2018-07-21T21:10:37.491Z,93393.16
2018-07-21T21:13:06.185Z,93395.66
2018-07-21T21:15:34.598Z,93386.19
2018-07-21T21:18:02.918Z,93383.63
2018-07-21T21:20:31.215Z,93386.89
2018-07-21T21:22:59.667Z,93387.28
2018-07-21T21:25:28.163Z,93391.58
2018-07-21T21:27:56.459Z,93389.91
2018-07-21T21:30:24.904Z,93391.48
2018-07-21T21:32:53.310Z,93388.80
2018-07-21T21:35:21.696Z,93391.98
2018-07-21T21:37:50.020Z,93400.48
2018-07-21T21:40:18.413Z,93400.81
2018-07-21T21:42:46.666Z,93401.44
2018-07-21T21:45:14.952Z,93404.91
2018-07-21T21:47:43.327Z,93398.68
2018-07-21T21:50:11.625Z,93398.12
2018-07-21T21:52:39.824Z,93391.69
2018-07-21T21:55:08.295Z,93391.75
2018-07-21T21:57:36.527Z,93388.73
2018-07-21T22:00:08.454Z,93386.44
2018-07-21T22:02:36.884Z,93390.31
2018-07-21T22:05:05.480Z,93391.30
2018-07-21T22:07:33.870Z,93392.60
2018-07-21T22:10:02.242Z,93391.36
2018-07-21T22:12:30.730Z,93390.23
2018-07-21T22:14:59.296Z,93389.94
2018-07-21T22:17:27.674Z,93389.47
2018-07-21T22:19:56.115Z,93383.50
2018-07-21T22:22:24.531Z,93387.30
2018-07-21T22:24:52.850Z,93392.34
2018-07-21T22:27:21.137Z,93391.91
2018-07-21T22:29:49.559Z,93391.95
2018-07-21T22:32:17.940Z,93394.30
2018-07-21T22:34:46.226Z,93390.42
2018-07-21T22:37:14.519Z,93396.12
2018-07-21T22:39:42.871Z,93392.11
2018-07-21T22:42:11.209Z,93387.73
2018-07-21T22:44:39.645Z,93396.70
2018-07-21T22:47:08.027Z,93402.08
2018-07-21T22:49:36.264Z,93401.27
2018-07-21T22:52:04.832Z,93397.00
2018-07-21T22:54:33.320Z,93390.34
2018-07-21T22:57:01.678Z,93392.67
2018-07-21T22:59:30.092Z,93387.81
2018-07-21T23:01:58.526Z,93391.48
2018-07-21T23:04:27.022Z,93386.73
2018-07-21T23:06:55.463Z,93384.49
2018-07-21T23:09:23.820Z,93380.88
2018-07-21T23:11:52.321Z,93379.74
2018-07-21T23:14:21.137Z,93375.86
2018-07-21T23:16:49.656Z,93373.93
2018-07-21T23:19:18.139Z,93378.03
2018-07-21T23:21:46.543Z,93372.83
2018-07-21T23:24:15.238Z,93374.91
2018-07-21T23:26:43.598Z,93380.52
2018-07-21T23:29:11.921Z,93376.63
2018-07-21T23:31:40.293Z,93375.68
2018-07-21T23:34:08.538Z,93362.67
2018-07-21T23:36:36.860Z,93363.73
2018-07-21T23:39:07.841Z,93351.87
2018-07-21T23:41:36.169Z,93354.03
2018-07-21T23:44:04.475Z,93356.32
2018-07-21T23:46:32.647Z,93361.69
2018-07-21T23:49:00.902Z,93360.73
2018-07-21T23:51:29.152Z,93364.55
2018-07-21T23:53:57.338Z,93367.28
2018-07-21T23:56:25.544Z,93367.20
2018-07-21T23:58:53.804Z,93362.70
